createdAt,value
2023-04-13T00:00:10.973Z,0.70
2023-04-13T00:02:39.509Z,0.80
2023-04-13T00:05:09.288Z,0.70
2023-04-13T00:07:38.915Z,0.80
2023-04-13T00:10:08.729Z,0.73
2023-04-13T00:12:38.071Z,0.93
2023-04-13T00:15:06.722Z,1.20
2023-04-13T00:17:34.654Z,0.77
2023-04-13T00:20:08.165Z,0.83
2023-04-13T00:22:35.788Z,1.00
2023-04-13T00:25:03.539Z,1.00
2023-04-13T00:27:31.271Z,1.40
2023-04-13T00:30:00.223Z,0.90
2023-04-13T00:32:27.818Z,0.80
2023-04-13T00:34:55.625Z,0.67
2023-04-13T00:37:23.275Z,0.83
2023-04-13T00:39:51.620Z,0.77
2023-04-13T00:42:19.914Z,0.73
2023-04-13T00:44:47.696Z,0.90
2023-04-13T00:47:18.528Z,0.60
2023-04-13T00:49:46.113Z,0.77
2023-04-13T00:52:14.071Z,1.40
2023-04-13T00:54:42.457Z,0.93
2023-04-13T00:57:10.103Z,1.00
2023-04-13T00:59:37.824Z,0.73
2023-04-13T01:02:07.597Z,1.07
2023-04-13T01:04:37.624Z,0.90
2023-04-13T01:07:09.725Z,0.97
2023-04-13T01:09:41.781Z,1.07
2023-04-13T01:12:13.163Z,1.10
2023-04-13T01:14:43.233Z,1.03
2023-04-13T01:17:15.363Z,0.93
2023-04-13T01:19:51.605Z,1.10
2023-04-13T01:22:22.637Z,1.13
2023-04-13T01:25:05.748Z,0.90
2023-04-13T01:27:44.555Z,1.07
2023-04-13T01:30:13.350Z,1.13
2023-04-13T01:32:42.037Z,0.73
2023-04-13T01:35:10.779Z,1.63
2023-04-13T01:37:39.145Z,1.20
2023-04-13T01:40:10.211Z,1.30
2023-04-13T01:42:39.420Z,1.40
2023-04-13T01:45:13.031Z,1.20
2023-04-13T01:47:43.497Z,1.20
2023-04-13T01:50:15.280Z,1.40
2023-04-13T01:52:44.093Z,1.17
2023-04-13T01:55:13.588Z,1.20
2023-04-13T01:57:47.176Z,1.30
2023-04-13T02:00:16.308Z,1.37
2023-04-13T02:02:45.173Z,1.57
2023-04-13T02:05:12.964Z,1.00
2023-04-13T02:07:41.704Z,1.50
2023-04-13T02:10:10.186Z,1.43
2023-04-13T02:12:37.933Z,1.40
2023-04-13T02:15:08.105Z,1.10
2023-04-13T02:17:36.849Z,1.43
2023-04-13T02:20:11.141Z,1.70
2023-04-13T02:22:41.381Z,1.10
2023-04-13T02:25:11.302Z,1.10
2023-04-13T02:27:39.610Z,1.40
2023-04-13T02:30:09.937Z,1.30
2023-04-13T02:32:39.565Z,1.13
2023-04-13T02:35:09.818Z,1.40
2023-04-13T02:37:39.336Z,1.03
2023-04-13T02:40:10.243Z,1.10
2023-04-13T02:42:38.454Z,1.30
2023-04-13T02:45:12.059Z,1.20
2023-04-13T02:47:40.338Z,1.20
2023-04-13T02:50:09.454Z,1.20
2023-04-13T02:52:37.193Z,1.10
2023-04-13T02:55:05.695Z,1.30
2023-04-13T02:57:34.191Z,0.87
2023-04-13T03:00:01.816Z,0.90
2023-04-13T03:02:31.175Z,1.13
2023-04-13T03:04:59.542Z,0.77
2023-04-13T03:07:27.167Z,1.27
2023-04-13T03:09:55.403Z,1.03
2023-04-13T03:12:22.974Z,1.03
2023-04-13T03:14:51.535Z,1.40
2023-04-13T03:17:19.938Z,1.00
2023-04-13T03:19:49.537Z,1.07
2023-04-13T03:22:17.435Z,1.03
2023-04-13T03:24:45.054Z,1.67
2023-04-13T03:27:12.614Z,1.50
2023-04-13T03:29:40.246Z,1.43
2023-04-13T03:32:08.160Z,1.27
2023-04-13T03:34:35.839Z,1.60
2023-04-13T03:37:04.742Z,1.10
2023-04-13T03:39:32.301Z,0.90
2023-04-13T03:41:59.866Z,0.93
2023-04-13T03:44:27.454Z,1.30
2023-04-13T03:46:55.088Z,0.90
2023-04-13T03:49:22.738Z,1.10
2023-04-13T03:51:50.927Z,1.33
2023-04-13T03:54:19.867Z,1.60
2023-04-13T03:56:47.488Z,1.63
2023-04-13T03:59:15.231Z,1.50
2023-04-13T04:01:42.911Z,1.13
2023-04-13T04:04:10.840Z,1.20
2023-04-13T04:06:38.490Z,1.53
2023-04-13T04:09:06.730Z,1.47
2023-04-13T04:11:35.771Z,1.50
2023-04-13T04:14:04.592Z,1.10
2023-04-13T04:16:32.593Z,1.67
2023-04-13T04:19:00.198Z,1.37
2023-04-13T04:21:34.358Z,1.90
2023-04-13T04:24:02.176Z,1.80
2023-04-13T04:26:30.172Z,1.20
2023-04-13T04:29:02.121Z,1.40
2023-04-13T04:31:36.760Z,1.93
2023-04-13T04:34:05.014Z,1.50
2023-04-13T04:36:32.558Z,1.50
2023-04-13T04:39:02.617Z,1.60
2023-04-13T04:41:31.429Z,1.40
2023-04-13T04:44:03.394Z,1.80
2023-04-13T04:46:31.261Z,1.20
2023-04-13T04:49:00.759Z,1.50
2023-04-13T04:51:28.545Z,1.50
2023-04-13T04:53:58.685Z,1.37
2023-04-13T04:56:27.044Z,1.50
2023-04-13T04:58:54.736Z,1.23
2023-04-13T05:01:26.519Z,1.50
2023-04-13T05:03:54.617Z,1.50
2023-04-13T05:06:22.531Z,1.70
2023-04-13T05:08:50.152Z,1.43
2023-04-13T05:11:17.792Z,1.83
2023-04-13T05:13:45.410Z,2.13
2023-04-13T05:16:13.124Z,1.43
2023-04-13T05:18:48.824Z,1.40
2023-04-13T05:21:17.653Z,1.63
2023-04-13T05:23:45.448Z,2.30
2023-04-13T05:26:13.873Z,2.00
2023-04-13T05:28:41.809Z,1.37
2023-04-13T05:31:12.506Z,1.53
2023-04-13T05:33:40.187Z,1.40
2023-04-13T05:36:10.016Z,1.73
2023-04-13T05:38:37.635Z,1.80
2023-04-13T05:41:05.504Z,1.80
2023-04-13T05:43:33.160Z,1.90
2023-04-13T05:46:00.823Z,1.93
2023-04-13T05:48:28.564Z,2.53
2023-04-13T05:50:58.208Z,2.40
2023-04-13T05:53:27.295Z,2.00
2023-04-13T05:55:55.341Z,1.90
2023-04-13T05:58:22.996Z,1.70
2023-04-13T06:00:50.678Z,1.50
2023-04-13T06:03:20.622Z,1.90
2023-04-13T06:05:49.328Z,2.17
2023-04-13T06:08:17.146Z,2.53
2023-04-13T06:10:46.128Z,2.10
2023-04-13T06:13:13.832Z,2.10
2023-04-13T06:15:41.507Z,2.27
2023-04-13T06:18:09.216Z,2.60
2023-04-13T06:20:36.885Z,2.67
2023-04-13T06:23:04.502Z,2.07
2023-04-13T06:25:32.390Z,2.30
2023-04-13T06:28:04.373Z,2.60
2023-04-13T06:30:31.957Z,2.73
2023-04-13T06:32:59.627Z,2.40
2023-04-13T06:35:27.355Z,1.60
2023-04-13T06:37:55.731Z,2.07
2023-04-13T06:40:23.378Z,1.80
2023-04-13T06:42:51.075Z,1.70
2023-04-13T06:45:20.614Z,2.10
2023-04-13T06:47:48.788Z,2.10
2023-04-13T06:50:17.042Z,1.77
2023-04-13T06:52:45.764Z,2.00
2023-04-13T06:55:13.494Z,1.43
2023-04-13T06:57:41.882Z,2.13
2023-04-13T07:00:26.052Z,1.93
2023-04-13T07:02:58.226Z,1.80
2023-04-13T07:05:26.221Z,2.30
2023-04-13T07:07:54.000Z,1.63
2023-04-13T07:10:21.893Z,1.70
2023-04-13T07:12:49.680Z,2.00
2023-04-13T07:15:17.459Z,1.90
2023-04-13T07:17:45.217Z,1.77
2023-04-13T07:20:14.603Z,2.00
2023-04-13T07:22:42.180Z,1.80
2023-04-13T07:25:10.231Z,1.77
2023-04-13T07:27:37.904Z,1.70
2023-04-13T07:30:08.396Z,1.53
2023-04-13T07:32:36.071Z,1.70
2023-04-13T07:35:03.977Z,1.57
2023-04-13T07:37:33.030Z,1.60
2023-04-13T07:40:00.626Z,2.00
2023-04-13T07:42:28.352Z,2.27
2023-04-13T07:44:56.437Z,2.10
2023-04-13T07:47:24.087Z,1.80
2023-04-13T07:49:51.702Z,1.60
2023-04-13T07:52:20.674Z,2.10
2023-04-13T07:54:49.709Z,2.63
2023-04-13T07:57:21.302Z,2.03
2023-04-13T07:59:52.162Z,2.03
2023-04-13T08:02:22.503Z,2.10
2023-04-13T08:04:50.783Z,1.63
2023-04-13T08:07:18.687Z,1.77
2023-04-13T08:09:48.655Z,1.70
2023-04-13T08:12:17.905Z,2.03
2023-04-13T08:14:45.608Z,1.77
2023-04-13T08:17:13.360Z,1.50
2023-04-13T08:19:41.146Z,1.83
2023-04-13T08:22:10.795Z,2.33
2023-04-13T08:24:38.683Z,1.60
2023-04-13T08:27:07.908Z,1.63
2023-04-13T08:29:36.814Z,1.60
2023-04-13T08:32:04.887Z,1.80
2023-04-13T08:34:32.640Z,1.47
2023-04-13T08:37:00.272Z,1.70
2023-04-13T08:39:27.879Z,1.70
2023-04-13T08:41:56.725Z,1.33
2023-04-13T08:44:24.799Z,1.60
2023-04-13T08:46:53.801Z,1.17
2023-04-13T08:49:21.527Z,1.03
2023-04-13T08:51:50.089Z,1.30
2023-04-13T08:54:17.681Z,1.23
2023-04-13T08:56:47.219Z,1.43
2023-04-13T08:59:16.273Z,1.00
2023-04-13T09:01:44.838Z,1.10
2023-04-13T09:04:17.814Z,1.20
2023-04-13T09:06:47.960Z,1.13
2023-04-13T09:09:15.838Z,0.93
2023-04-13T09:11:45.736Z,1.30
2023-04-13T09:14:13.655Z,1.13
2023-04-13T09:16:42.049Z,0.93
2023-04-13T09:19:10.473Z,1.10
2023-04-13T09:21:40.432Z,1.30
2023-04-13T09:24:08.581Z,1.13
2023-04-13T09:26:43.226Z,1.23
2023-04-13T09:29:13.850Z,1.03
2023-04-13T09:31:44.939Z,1.43
2023-04-13T09:34:13.714Z,1.23
2023-04-13T09:36:54.223Z,1.00
2023-04-13T09:39:28.602Z,1.33
2023-04-13T09:41:58.101Z,1.00
2023-04-13T09:44:28.768Z,1.40
2023-04-13T09:46:59.963Z,1.50
2023-04-13T09:49:27.866Z,1.27
2023-04-13T09:51:57.368Z,1.30
2023-04-13T09:54:25.083Z,1.30
2023-04-13T09:56:54.619Z,1.00
2023-04-13T09:59:23.724Z,1.17
2023-04-13T10:01:51.715Z,1.23
2023-04-13T10:04:19.444Z,1.03
2023-04-13T10:06:48.334Z,1.17
2023-04-13T10:09:17.339Z,1.20
2023-04-13T10:11:47.090Z,1.40
2023-04-13T10:14:17.082Z,1.23
2023-04-13T10:16:59.655Z,1.03
2023-04-13T10:19:30.874Z,1.40
2023-04-13T10:21:58.858Z,1.30
2023-04-13T10:24:28.776Z,1.23
2023-04-13T10:26:58.582Z,1.37
2023-04-13T10:29:29.736Z,1.40
2023-04-13T10:32:03.937Z,1.10
2023-04-13T10:34:34.092Z,1.57
2023-04-13T10:37:03.993Z,1.30
2023-04-13T10:39:34.962Z,1.37
2023-04-13T10:42:03.648Z,1.00
2023-04-13T10:44:42.280Z,1.43
2023-04-13T10:47:11.187Z,1.30
2023-04-13T10:49:42.579Z,1.20
2023-04-13T10:52:11.279Z,1.20
2023-04-13T10:54:41.193Z,1.00
2023-04-13T10:57:11.057Z,1.40
2023-04-13T10:59:55.636Z,1.00
2023-04-13T11:02:26.112Z,0.93
2023-04-13T11:04:54.219Z,1.07
2023-04-13T11:07:23.805Z,1.33
2023-04-13T11:10:02.821Z,0.93
2023-04-13T11:12:31.200Z,0.93
2023-04-13T11:14:59.030Z,1.40
2023-04-13T11:17:27.073Z,1.60
2023-04-13T11:19:56.213Z,1.20
2023-04-13T11:22:27.643Z,1.27
2023-04-13T11:25:07.306Z,1.23
2023-04-13T11:27:34.971Z,1.67
2023-04-13T11:30:06.044Z,1.03
2023-04-13T11:32:34.218Z,1.60
2023-04-13T11:35:09.404Z,1.30
2023-04-13T11:37:38.414Z,1.53
2023-04-13T11:40:15.040Z,1.67
2023-04-13T11:42:44.580Z,1.10
2023-04-13T11:45:14.659Z,1.50
2023-04-13T11:47:42.416Z,1.43
2023-04-13T11:50:10.538Z,1.93
2023-04-13T11:52:39.167Z,1.47
2023-04-13T11:55:21.598Z,1.33
2023-04-13T11:57:51.058Z,1.83
2023-04-13T12:00:23.986Z,1.50
2023-04-13T12:03:02.067Z,1.73
2023-04-13T12:05:32.844Z,1.20
2023-04-13T12:08:04.239Z,1.07
2023-04-13T12:10:42.327Z,1.00
2023-04-13T12:16:02.308Z,1.07
2023-04-13T12:18:43.102Z,0.60
2023-04-13T12:21:16.260Z,0.60
2023-04-13T12:23:53.188Z,0.60
2023-04-13T12:28:56.427Z,0.73
2023-04-13T12:31:24.265Z,0.73
2023-04-13T12:33:52.250Z,0.57
2023-04-13T12:36:19.863Z,0.77
2023-04-13T12:38:47.469Z,0.90
2023-04-13T12:41:15.021Z,0.63
2023-04-13T12:43:44.114Z,1.10
2023-04-13T12:46:11.705Z,1.43
2023-04-13T12:48:39.429Z,0.90
2023-04-13T12:51:07.103Z,0.97
2023-04-13T12:53:35.424Z,0.77
2023-04-13T12:56:03.452Z,0.70
2023-04-13T12:58:31.666Z,0.87
2023-04-13T13:01:01.299Z,0.90
2023-04-13T13:03:28.958Z,0.20
2023-04-13T13:05:57.304Z,0.60
2023-04-13T13:08:24.879Z,1.00
2023-04-13T13:10:52.588Z,0.80
2023-04-13T13:13:20.260Z,1.00
2023-04-13T13:15:47.853Z,1.00
2023-04-13T13:18:16.842Z,0.50
2023-04-13T13:20:45.544Z,0.70
2023-04-13T13:23:13.562Z,0.80
2023-04-13T13:25:52.447Z,0.60
2023-04-13T13:28:30.332Z,0.60
2023-04-13T13:30:58.070Z,0.83
2023-04-13T13:33:27.021Z,0.80
2023-04-13T13:35:54.633Z,0.80
2023-04-13T13:38:22.301Z,1.00
2023-04-13T13:40:49.946Z,1.20
2023-04-13T13:43:21.380Z,1.10
2023-04-13T13:45:49.107Z,1.17
2023-04-13T13:48:16.846Z,0.90
2023-04-13T13:50:45.893Z,1.10
2023-04-13T13:53:13.708Z,1.27
2023-04-13T13:55:41.577Z,1.50
2023-04-13T13:58:09.242Z,1.00
2023-04-13T14:00:36.913Z,1.17
2023-04-13T14:03:04.711Z,1.20
2023-04-13T14:05:32.420Z,1.33
2023-04-13T14:08:01.409Z,1.50
2023-04-13T14:10:29.089Z,1.70
2023-04-13T14:13:00.015Z,1.00
2023-04-13T14:15:27.721Z,2.00
2023-04-13T14:18:09.084Z,1.27
2023-04-13T14:20:39.918Z,1.97
2023-04-13T14:23:10.032Z,1.80
2023-04-13T14:25:38.485Z,1.77
2023-04-13T14:28:06.963Z,1.43
2023-04-13T14:30:34.620Z,1.63
2023-04-13T14:33:02.438Z,1.80
2023-04-13T14:35:30.088Z,1.40
2023-04-13T14:37:57.852Z,1.40
2023-04-13T14:40:28.218Z,2.07
2023-04-13T14:42:55.902Z,2.80
2023-04-13T14:45:23.907Z,3.30
2023-04-13T14:47:53.612Z,2.67
2023-04-13T14:50:21.549Z,4.40
2023-04-13T14:52:50.084Z,2.83
2023-04-13T14:55:18.269Z,1.60
2023-04-13T14:57:47.332Z,1.60
2023-04-13T15:00:21.499Z,1.40
2023-04-13T15:02:50.487Z,2.07
2023-04-13T15:05:18.717Z,1.77
2023-04-13T15:07:47.164Z,2.00
2023-04-13T15:10:14.859Z,2.13
2023-04-13T15:12:43.955Z,2.93
2023-04-13T15:15:13.201Z,3.27
2023-04-13T15:17:40.795Z,2.10
2023-04-13T15:20:10.535Z,1.70
2023-04-13T15:22:38.353Z,1.50
2023-04-13T15:25:07.094Z,1.40
2023-04-13T15:27:35.297Z,1.80
2023-04-13T15:30:03.292Z,1.70
2023-04-13T15:32:34.744Z,1.20
2023-04-13T15:35:02.440Z,1.67
2023-04-13T15:37:30.066Z,1.70
2023-04-13T15:39:57.748Z,1.80
2023-04-13T15:42:26.198Z,1.90
2023-04-13T15:44:55.052Z,1.80
2023-04-13T15:47:23.467Z,2.00
2023-04-13T15:49:52.427Z,1.83
2023-04-13T15:52:20.029Z,1.67
2023-04-13T15:54:47.757Z,1.30
2023-04-13T15:57:15.688Z,1.50
2023-04-13T15:59:43.367Z,1.30
2023-04-13T16:02:11.184Z,1.70
2023-04-13T16:04:39.095Z,2.37
2023-04-13T16:07:13.616Z,1.83
2023-04-13T16:09:44.836Z,1.60
2023-04-13T16:12:12.539Z,2.00
2023-04-13T16:14:41.911Z,3.23
2023-04-13T16:17:10.284Z,1.73
2023-04-13T16:19:38.125Z,2.00
2023-04-13T16:22:06.435Z,1.70
2023-04-13T16:24:35.810Z,1.90
2023-04-13T16:27:03.460Z,2.03
2023-04-13T16:29:32.361Z,2.20
2023-04-13T16:31:59.983Z,2.33
2023-04-13T16:34:28.572Z,2.10
2023-04-13T16:36:56.179Z,1.90
2023-04-13T16:39:23.790Z,2.33
2023-04-13T16:41:52.799Z,1.80
2023-04-13T16:44:20.472Z,2.60
2023-04-13T16:46:48.043Z,2.10
2023-04-13T16:49:15.684Z,2.10
2023-04-13T16:51:43.390Z,2.30
2023-04-13T16:54:13.665Z,1.90
2023-04-13T16:56:41.382Z,1.73
2023-04-13T16:59:10.261Z,1.90
2023-04-13T17:01:39.745Z,1.87
2023-04-13T17:04:07.743Z,1.67
2023-04-13T17:06:37.283Z,1.70
2023-04-13T17:09:05.210Z,2.03
2023-04-13T17:11:32.859Z,2.33
2023-04-13T17:14:00.506Z,1.50
2023-04-13T17:16:30.059Z,1.90
2023-04-13T17:18:57.981Z,2.20
2023-04-13T17:21:25.830Z,1.93
2023-04-13T17:23:53.399Z,1.70
2023-04-13T17:26:20.989Z,1.57
2023-04-13T17:28:48.501Z,1.77
2023-04-13T17:31:16.600Z,1.90
2023-04-13T17:33:46.213Z,1.93
2023-04-13T17:36:14.836Z,2.00
2023-04-13T17:38:42.418Z,1.87
2023-04-13T17:41:10.479Z,1.87
2023-04-13T17:43:39.479Z,1.93
2023-04-13T17:46:08.397Z,2.33
2023-04-13T17:48:36.140Z,2.13
2023-04-13T17:51:07.580Z,1.93
2023-04-13T17:53:36.313Z,2.23
2023-04-13T17:56:03.989Z,2.57
2023-04-13T17:58:31.614Z,2.20
2023-04-13T18:00:59.169Z,2.37
2023-04-13T18:03:27.198Z,2.93
2023-04-13T18:05:55.006Z,2.73
2023-04-13T18:08:23.935Z,2.23
2023-04-13T18:10:51.488Z,2.37
2023-04-13T18:13:19.132Z,2.20
2023-04-13T18:15:49.819Z,2.37
2023-04-13T18:18:17.732Z,3.50
2023-04-13T18:20:46.740Z,4.17
2023-04-13T18:23:14.377Z,3.17
2023-04-13T18:25:43.296Z,3.93
2023-04-13T18:28:11.044Z,2.60
2023-04-13T18:30:38.828Z,2.80
2023-04-13T18:33:06.495Z,2.80
2023-04-13T18:35:35.024Z,2.60
2023-04-13T18:38:02.656Z,2.07
2023-04-13T18:40:30.351Z,2.83
2023-04-13T18:43:02.081Z,2.43
2023-04-13T18:45:29.709Z,2.90
2023-04-13T18:47:57.377Z,3.03
2023-04-13T18:50:26.465Z,2.27
2023-04-13T18:52:54.088Z,2.20
2023-04-13T18:55:23.110Z,2.53
2023-04-13T18:57:51.888Z,3.37
2023-04-13T19:00:21.340Z,2.90
2023-04-13T19:02:49.688Z,2.10
2023-04-13T19:05:18.155Z,2.50
2023-04-13T19:07:58.655Z,2.57
2023-04-13T19:10:27.777Z,3.93
2023-04-13T19:12:55.776Z,4.23
2023-04-13T19:15:24.990Z,3.63
2023-04-13T19:17:53.234Z,3.97
2023-04-13T19:20:22.945Z,4.53
2023-04-13T19:22:50.692Z,4.20
2023-04-13T19:25:18.336Z,4.37
2023-04-13T19:27:47.204Z,5.00
2023-04-13T19:30:16.121Z,4.53
2023-04-13T19:32:47.262Z,4.10
2023-04-13T19:35:14.885Z,2.73
2023-04-13T19:37:42.668Z,2.63
2023-04-13T19:40:13.505Z,2.60
2023-04-13T19:42:42.406Z,2.00
2023-04-13T19:45:10.776Z,1.80
2023-04-13T19:47:39.099Z,1.90
2023-04-13T19:50:10.375Z,2.17
2023-04-13T19:52:38.970Z,2.40
2023-04-13T19:55:07.526Z,2.07
2023-04-13T19:57:36.704Z,2.13
2023-04-13T20:00:16.803Z,2.10
2023-04-13T20:02:46.983Z,2.43
2023-04-13T20:05:16.840Z,2.30
2023-04-13T20:07:44.527Z,2.50
2023-04-13T20:10:13.038Z,2.30
2023-04-13T20:12:40.676Z,2.73
2023-04-13T20:15:09.014Z,2.27
2023-04-13T20:17:36.715Z,3.23
2023-04-13T20:20:06.404Z,2.90
2023-04-13T20:22:35.384Z,1.90
2023-04-13T20:25:03.432Z,2.30
2023-04-13T20:27:31.033Z,1.90
2023-04-13T20:29:58.548Z,2.10
2023-04-13T20:32:26.383Z,2.53
2023-04-13T20:34:55.428Z,2.77
2023-04-13T20:37:23.065Z,2.77
2023-04-13T20:39:52.804Z,2.90
2023-04-13T20:42:21.776Z,2.67
2023-04-13T20:44:57.092Z,2.50
2023-04-13T20:47:25.748Z,2.60
2023-04-13T20:49:57.018Z,2.13
2023-04-13T20:52:25.818Z,2.87
2023-04-13T20:54:55.391Z,2.40
2023-04-13T20:57:23.428Z,2.30
2023-04-13T20:59:51.764Z,2.50
2023-04-13T21:02:19.535Z,2.37
2023-04-13T21:04:47.229Z,1.77
2023-04-13T21:07:16.281Z,1.80
2023-04-13T21:09:44.356Z,2.50
2023-04-13T21:12:13.277Z,2.10
2023-04-13T21:14:41.136Z,2.37
2023-04-13T21:17:08.683Z,2.27
2023-04-13T21:19:37.820Z,2.57
2023-04-13T21:22:06.018Z,2.27
2023-04-13T21:24:33.628Z,2.10
2023-04-13T21:27:01.264Z,2.70
2023-04-13T21:29:30.187Z,2.23
2023-04-13T21:31:58.061Z,2.30
2023-04-13T21:34:27.214Z,1.93
2023-04-13T21:36:54.861Z,2.10
2023-04-13T21:39:22.428Z,2.67
2023-04-13T21:41:49.965Z,2.93
2023-04-13T21:44:29.217Z,2.70
2023-04-13T21:46:59.249Z,2.77
2023-04-13T21:49:27.147Z,3.10
2023-04-13T21:51:54.703Z,3.73
2023-04-13T21:54:22.259Z,2.90
2023-04-13T21:56:50.026Z,9.57
2023-04-13T21:59:17.587Z,7.90
2023-04-13T22:01:45.838Z,3.10
2023-04-13T22:04:15.370Z,2.53
2023-04-13T22:06:43.196Z,2.53
2023-04-13T22:09:12.306Z,3.33
2023-04-13T22:11:40.900Z,2.40
2023-04-13T22:14:08.588Z,2.33
2023-04-13T22:16:36.231Z,2.87
2023-04-13T22:19:03.933Z,3.20
2023-04-13T22:21:35.355Z,2.60
2023-04-13T22:24:03.063Z,2.53
2023-04-13T22:26:31.089Z,2.63
2023-04-13T22:28:58.973Z,2.40
2023-04-13T22:31:26.935Z,2.17
2023-04-13T22:33:54.581Z,2.03
2023-04-13T22:36:22.450Z,2.40
2023-04-13T22:38:51.937Z,2.57
2023-04-13T22:41:19.906Z,2.70
2023-04-13T22:43:47.714Z,2.40
2023-04-13T22:46:15.669Z,3.00
2023-04-13T22:48:43.422Z,2.57
2023-04-13T22:51:11.058Z,2.27
2023-04-13T22:53:38.824Z,3.07
2023-04-13T22:56:08.597Z,3.50
2023-04-13T22:58:36.513Z,3.57
2023-04-13T23:01:04.601Z,2.57
2023-04-13T23:03:32.393Z,2.40
2023-04-13T23:06:00.297Z,2.80
2023-04-13T23:08:29.246Z,2.70
2023-04-13T23:10:57.077Z,3.63
2023-04-13T23:13:26.310Z,3.30
2023-04-13T23:16:00.152Z,3.60
2023-04-13T23:18:28.159Z,3.77
2023-04-13T23:20:55.846Z,3.63
2023-04-13T23:23:23.707Z,3.83
2023-04-13T23:25:51.382Z,3.57
2023-04-13T23:28:18.995Z,3.60
2023-04-13T23:30:47.982Z,3.40
2023-04-13T23:33:15.783Z,3.50
2023-04-13T23:35:43.353Z,3.53
2023-04-13T23:38:10.944Z,4.03
2023-04-13T23:40:38.561Z,2.40
2023-04-13T23:43:06.132Z,3.43
2023-04-13T23:45:33.830Z,3.40
2023-04-13T23:48:03.888Z,3.97
2023-04-13T23:50:31.763Z,3.70
2023-04-13T23:52:59.666Z,4.57
2023-04-13T23:55:27.438Z,4.13
2023-04-13T23:57:55.013Z,4.27
